bureau de piste

Plus d’information sur les terrains : LFMD et VALBERG

METAR LFMD 260130Z AUTO 02003KT 300V100 CAVOK 16/09 Q1031

TAF AMD LFMD 251632Z 2516/2615 12015G25KT CAVOK   TEMPO 2602/2607 06010KT   BECMG 2608/2610 10016KT

INFORMATION ADDS - 0150 UTC 26 Sep 2018

Les commentaires sont clos.